Time,TemperatureF,DewpointF,PressureIn,WindDirection,WindDirectionDegrees,WindSpeedMPH,WindSpeedGustMPH,Humidity,HourlyPrecipIn,Conditions,Clouds,dailyrainin,SoftwareType,DateUTC
2013-08-15 00:01:00,75.1,68.9,30.03,NE,52,0.0,1.0,81,0.00,,,0.00,WeatherCatV1.02B3,2013-08-15 05:01:00,
2013-08-15 00:06:00,74.9,69.0,30.03,ENE,72,0.0,0.0,82,0.00,,,0.00,WeatherCatV1.02B3,2013-08-15 05:06:00,
2013-08-15 00:11:00,74.7,68.8,30.02,North,350,0.0,2.0,82,0.00,,,0.00,WeatherCatV1.02B3,2013-08-15 05:11:00,
2013-08-15 00:16:00,74.5,68.6,30.02,North,355,0.0,0.0,82,0.00,,,0.00,WeatherCatV1.02B3,2013-08-15 05:16:00,
2013-08-15 00:21:00,74.3,68.4,30.02,East,88,1.0,5.0,82,0.00,,,0.00,WeatherCatV1.02B3,2013-08-15 05:21:00,
2013-08-15 00:26:00,74.1,68.2,30.02,NE,34,0.0,2.0,82,0.00,,,0.00,WeatherCatV1.02B3,2013-08-15 05:26:00,
2013-08-15 00:31:00,73.9,68.0,30.02,NE,37,0.0,4.0,82,0.00,,,0.00,WeatherCatV1.02B3,2013-08-15 05:31:00,
2013-08-15 00:36:00,73.7,67.8,30.01,NE,55,0.0,1.0,82,0.00,,,0.00,WeatherCatV1.02B3,2013-08-15 05:36:00,
2013-08-15 00:41:00,73.6,67.8,30.01,ENE,74,0.0,5.0,82,0.00,,,0.00,WeatherCatV1.02B3,2013-08-15 05:41:00,
2013-08-15 00:46:00,73.4,67.2,30.01,East,80,0.0,3.0,81,0.00,,,0.00,WeatherCatV1.02B3,2013-08-15 05:46:00,
2013-08-15 00:51:00,73.2,67.0,30.01,ENE,60,0.0,1.0,81,0.00,,,0.00,WeatherCatV1.02B3,2013-08-15 05:51:00,
2013-08-15 00:56:00,73.1,67.3,30.01,NE,49,1.0,4.0,82,0.00,,,0.00,WeatherCatV1.02B3,2013-08-15 05:56:00,
2013-08-15 01:01:00,72.9,67.1,30.01,NNE,19,0.0,0.0,82,0.00,,,0.00,WeatherCatV1.02B3,2013-08-15 06:01:00,
2013-08-15 01:06:00,72.7,66.9,30.01,NE,38,0.0,0.0,82,0.00,,,0.00,WeatherCatV1.02B3,2013-08-15 06:06:00,
2013-08-15 01:11:00,72.6,66.8,30.01,NNE,30,0.0,2.0,82,0.00,,,0.00,WeatherCatV1.02B3,2013-08-15 06:11:00,
2013-08-15 01:16:00,72.5,66.7,30.01,ESE,117,0.0,6.0,82,0.00,,,0.00,WeatherCatV1.02B3,2013-08-15 06:16:00,
2013-08-15 01:21:00,72.3,66.5,30.01,NNE,18,0.0,3.0,82,0.00,,,0.00,WeatherCatV1.02B3,2013-08-15 06:21:00,
2013-08-15 01:26:00,72.1,66.3,30.01,NE,53,2.0,3.0,82,0.00,,,0.00,WeatherCatV1.02B3,2013-08-15 06:26:00,
2013-08-15 01:31:00,72.0,66.2,30.02,ENE,70,0.0,2.0,82,0.00,,,0.00,WeatherCatV1.02B3,2013-08-15 06:31:00,
2013-08-15 01:36:00,71.9,66.1,30.01,NE,44,0.0,1.0,82,0.00,,,0.00,WeatherCatV1.02B3,2013-08-15 06:36:00,
2013-08-15 01:41:00,71.8,66.0,30.01,ENE,68,0.0,1.0,82,0.00,,,0.00,WeatherCatV1.02B3,2013-08-15 06:41:00,
2013-08-15 01:46:00,71.7,65.9,30.01,ENE,61,0.0,1.0,82,0.00,,,0.00,WeatherCatV1.02B3,2013-08-15 06:46:00,
2013-08-15 01:51:00,71.6,65.8,30.01,ENE,75,0.0,0.0,82,0.00,,,0.00,WeatherCatV1.02B3,2013-08-15 06:51:00,
2013-08-15 01:56:00,71.4,66.0,30.01,ENE,58,0.0,1.0,83,0.00,,,0.00,WeatherCatV1.02B3,2013-08-15 06:56:00,
2013-08-15 02:01:00,71.3,65.9,30.01,NE,50,0.0,1.0,83,0.00,,,0.00,WeatherCatV1.02B3,2013-08-15 07:01:00,
2013-08-15 02:06:00,71.2,65.8,30.00,NNE,26,0.0,0.0,83,0.00,,,0.00,WeatherCatV1.02B3,2013-08-15 07:06:00,
2013-08-15 02:11:00,71.1,65.7,30.00,NNE,30,1.0,1.0,83,0.00,,,0.00,WeatherCatV1.02B3,2013-08-15 07:11:00,
2013-08-15 02:16:00,71.0,65.6,30.00,NNE,30,0.0,0.0,83,0.00,,,0.00,WeatherCatV1.02B3,2013-08-15 07:16:00,
2013-08-15 02:21:00,70.9,65.8,30.00,NNE,30,0.0,1.0,84,0.00,,,0.00,WeatherCatV1.02B3,2013-08-15 07:21:00,
2013-08-15 02:26:00,70.8,65.7,30.00,NE,50,2.0,3.0,84,0.00,,,0.00,WeatherCatV1.02B3,2013-08-15 07:26:00,
2013-08-15 02:31:00,70.6,65.5,30.00,East,90,0.0,4.0,84,0.00,,,0.00,WeatherCatV1.02B3,2013-08-15 07:31:00,
2013-08-15 02:36:00,70.5,65.4,30.00,ENE,62,0.0,2.0,84,0.00,,,0.00,WeatherCatV1.02B3,2013-08-15 07:36:00,
2013-08-15 02:41:00,70.4,65.3,30.00,NNE,32,0.0,1.0,84,0.00,,,0.00,WeatherCatV1.02B3,2013-08-15 07:41:00,
2013-08-15 02:46:00,70.3,65.2,30.00,NE,38,0.0,2.0,84,0.00,,,0.00,WeatherCatV1.02B3,2013-08-15 07:46:00,
2013-08-15 02:51:00,70.2,65.1,29.99,NE,48,0.0,1.0,84,0.00,,,0.00,WeatherCatV1.02B3,2013-08-15 07:51:00,
2013-08-15 02:56:00,70.1,65.4,29.99,NE,45,1.0,3.0,85,0.00,,,0.00,WeatherCatV1.02B3,2013-08-15 07:56:00,
2013-08-15 03:01:00,70.0,65.3,29.99,ENE,59,0.0,1.0,85,0.00,,,0.00,WeatherCatV1.02B3,2013-08-15 08:01:00,
2013-08-15 03:06:00,69.8,65.1,29.99,ENE,59,0.0,0.0,85,0.00,,,0.00,WeatherCatV1.02B3,2013-08-15 08:06:00,
2013-08-15 03:11:00,69.7,65.0,30.00,ENE,59,0.0,0.0,85,0.00,,,0.00,WeatherCatV1.02B3,2013-08-15 08:11:00,
2013-08-15 03:16:00,69.7,65.0,29.99,ENE,69,1.0,2.0,85,0.00,,,0.00,WeatherCatV1.02B3,2013-08-15 08:16:00,
2013-08-15 03:21:00,69.5,65.1,30.00,East,84,0.0,0.0,86,0.00,,,0.00,WeatherCatV1.02B3,2013-08-15 08:21:00,
2013-08-15 03:26:00,69.5,65.1,29.99,East,84,0.0,0.0,86,0.00,,,0.00,WeatherCatV1.02B3,2013-08-15 08:26:00,
2013-08-15 03:31:00,69.4,65.0,29.99,East,99,0.0,7.0,86,0.00,,,0.00,WeatherCatV1.02B3,2013-08-15 08:31:00,
2013-08-15 03:36:00,69.3,64.9,30.00,East,99,0.0,0.0,86,0.00,,,0.00,WeatherCatV1.02B3,2013-08-15 08:36:00,
2013-08-15 03:41:00,69.2,64.8,30.00,East,99,0.0,0.0,86,0.00,,,0.00,WeatherCatV1.02B3,2013-08-15 08:41:00,
2013-08-15 03:46:00,69.2,64.8,30.00,East,99,0.0,0.0,86,0.00,,,0.00,WeatherCatV1.02B3,2013-08-15 08:46:00,
2013-08-15 03:51:00,69.0,64.6,30.00,East,94,0.0,1.0,86,0.00,,,0.00,WeatherCatV1.02B3,2013-08-15 08:51:00,
2013-08-15 03:56:00,68.9,64.5,29.99,ENE,76,1.0,1.0,86,0.00,,,0.00,WeatherCatV1.02B3,2013-08-15 08:56:00,
2013-08-15 04:01:00,68.8,64.8,29.99,NE,51,0.0,1.0,87,0.00,,,0.00,WeatherCatV1.02B3,2013-08-15 09:01:00,
2013-08-15 04:06:00,68.7,64.7,29.99,ESE,106,0.0,0.0,87,0.00,,,0.00,WeatherCatV1.02B3,2013-08-15 09:06:00,
2013-08-15 04:11:00,68.7,64.7,29.99,ESE,106,0.0,1.0,87,0.00,,,0.00,WeatherCatV1.02B3,2013-08-15 09:11:00,
2013-08-15 04:16:00,68.6,64.6,29.99,ENE,73,0.0,1.0,87,0.00,,,0.00,WeatherCatV1.02B3,2013-08-15 09:16:00,
2013-08-15 04:21:00,68.5,64.5,29.99,SE,131,0.0,5.0,87,0.00,,,0.00,WeatherCatV1.02B3,2013-08-15 09:21:00,
2013-08-15 04:26:00,68.4,64.4,29.99,ENE,73,0.0,1.0,87,0.00,,,0.00,WeatherCatV1.02B3,2013-08-15 09:26:00,
2013-08-15 04:31:00,68.3,64.3,29.99,North,355,1.0,2.0,87,0.00,,,0.00,WeatherCatV1.02B3,2013-08-15 09:31:00,
2013-08-15 04:36:00,68.3,64.3,29.99,NNE,14,0.0,1.0,87,0.00,,,0.00,WeatherCatV1.02B3,2013-08-15 09:36:00,
2013-08-15 04:41:00,68.2,64.2,29.99,NNE,14,0.0,0.0,87,0.00,,,0.00,WeatherCatV1.02B3,2013-08-15 09:41:00,
2013-08-15 04:46:00,68.2,64.5,29.99,NNE,14,0.0,2.0,88,0.00,,,0.00,WeatherCatV1.02B3,2013-08-15 09:46:00,
2013-08-15 04:51:00,68.1,64.4,29.99,NE,36,0.0,1.0,88,0.00,,,0.00,WeatherCatV1.02B3,2013-08-15 09:51:00,
2013-08-15 04:56:00,68.1,64.4,29.99,NNE,17,0.0,0.0,88,0.00,,,0.00,WeatherCatV1.02B3,2013-08-15 09:56:00,
2013-08-15 05:01:00,68.0,64.3,30.00,NNE,17,0.0,0.0,88,0.00,,,0.00,WeatherCatV1.02B3,2013-08-15 10:01:00,
2013-08-15 05:06:00,67.9,64.2,29.99,NNE,17,0.0,0.0,88,0.00,,,0.00,WeatherCatV1.02B3,2013-08-15 10:06:00,
2013-08-15 05:11:00,67.8,64.1,30.00,NNE,17,0.0,0.0,88,0.00,,,0.00,WeatherCatV1.02B3,2013-08-15 10:11:00,
2013-08-15 05:16:00,67.7,64.0,30.00,NNE,17,0.0,1.0,88,0.00,,,0.00,WeatherCatV1.02B3,2013-08-15 10:16:00,
2013-08-15 05:21:00,67.6,63.9,30.00,NNE,17,0.0,0.0,88,0.00,,,0.00,WeatherCatV1.02B3,2013-08-15 10:21:00,
2013-08-15 05:26:00,67.6,63.9,30.00,NNE,17,0.0,0.0,88,0.00,,,0.00,WeatherCatV1.02B3,2013-08-15 10:26:00,
2013-08-15 05:31:00,67.5,63.8,30.00,NNE,18,0.0,0.0,88,0.00,,,0.00,WeatherCatV1.02B3,2013-08-15 10:31:00,
2013-08-15 05:36:00,67.4,64.0,30.00,ENE,78,1.0,2.0,89,0.00,,,0.00,WeatherCatV1.02B3,2013-08-15 10:36:00,
2013-08-15 05:41:00,67.4,64.0,30.00,NE,43,0.0,1.0,89,0.00,,,0.00,WeatherCatV1.02B3,2013-08-15 10:41:00,
2013-08-15 05:46:00,67.3,63.9,30.01,NE,43,0.0,0.0,89,0.00,,,0.00,WeatherCatV1.02B3,2013-08-15 10:46:00,
2013-08-15 05:51:00,67.2,63.5,30.01,NE,43,0.0,0.0,88,0.00,,,0.00,WeatherCatV1.02B3,2013-08-15 10:51:00,
2013-08-15 05:56:00,67.3,63.9,30.01,NE,43,0.0,0.0,89,0.00,,,0.00,WeatherCatV1.02B3,2013-08-15 10:56:00,
2013-08-15 06:01:00,67.2,63.8,30.01,NE,43,0.0,0.0,89,0.00,,,0.00,WeatherCatV1.02B3,2013-08-15 11:01:00,
2013-08-15 06:06:00,67.2,63.8,30.01,NE,43,0.0,0.0,89,0.00,,,0.00,WeatherCatV1.02B3,2013-08-15 11:06:00,
2013-08-15 06:11:00,67.3,63.9,30.01,NE,43,0.0,1.0,89,0.00,,,0.00,WeatherCatV1.02B3,2013-08-15 11:11:00,
2013-08-15 06:16:00,67.2,63.8,30.02,NE,43,0.0,0.0,89,0.00,,,0.00,WeatherCatV1.02B3,2013-08-15 11:16:00,
2013-08-15 06:21:00,67.3,63.9,30.01,NE,43,0.0,0.0,89,0.00,,,0.00,WeatherCatV1.02B3,2013-08-15 11:21:00,
2013-08-15 06:26:00,67.3,63.9,30.01,NE,43,0.0,0.0,89,0.00,,,0.00,WeatherCatV1.02B3,2013-08-15 11:26:00,
2013-08-15 06:31:00,67.3,63.9,30.02,NE,43,0.0,0.0,89,0.00,,,0.00,WeatherCatV1.02B3,2013-08-15 11:31:00,
2013-08-15 06:36:00,67.2,63.8,30.02,NE,43,0.0,1.0,89,0.00,,,0.00,WeatherCatV1.02B3,2013-08-15 11:36:00,
2013-08-15 06:41:00,67.2,63.8,30.02,NE,43,0.0,0.0,89,0.00,,,0.00,WeatherCatV1.02B3,2013-08-15 11:41:00,
2013-08-15 06:47:00,67.1,63.7,30.02,NE,43,0.0,1.0,89,0.00,,,0.00,WeatherCatV1.02B3,2013-08-15 11:47:00,
2013-08-15 06:52:00,67.1,63.7,30.02,NE,47,0.0,1.0,89,0.00,,,0.00,WeatherCatV1.02B3,2013-08-15 11:52:00,
2013-08-15 06:57:00,67.3,64.3,30.02,NE,47,0.0,0.0,90,0.00,,,0.00,WeatherCatV1.02B3,2013-08-15 11:57:00,
2013-08-15 06:59:00,67.4,64.4,30.02,NE,47,0.0,0.0,90,0.00,,,0.00,WeatherCatV1.02B3,2013-08-15 11:59:00,
2013-08-15 07:04:00,67.3,64.3,30.02,NE,51,0.0,2.0,90,0.00,,,0.00,WeatherCatV1.02B3,2013-08-15 12:04:00,
2013-08-15 07:09:00,67.4,64.7,30.03,NE,51,0.0,1.0,91,0.00,,,0.00,WeatherCatV1.02B3,2013-08-15 12:09:00,
2013-08-15 07:14:00,67.2,64.5,30.03,NE,51,0.0,0.0,91,0.00,,,0.00,WeatherCatV1.02B3,2013-08-15 12:14:00,
2013-08-15 07:19:00,67.2,64.5,30.03,NE,52,0.0,0.0,91,0.00,,,0.00,WeatherCatV1.02B3,2013-08-15 12:19:00,
2013-08-15 07:24:00,67.2,64.5,30.02,NE,52,0.0,1.0,91,0.00,,,0.00,WeatherCatV1.02B3,2013-08-15 12:24:00,
2013-08-15 07:29:00,67.2,64.5,30.02,East,83,0.0,1.0,91,0.00,,,0.00,WeatherCatV1.02B3,2013-08-15 12:29:00,
2013-08-15 07:34:00,67.5,65.1,30.03,ENE,77,0.0,0.0,92,0.00,,,0.00,WeatherCatV1.02B3,2013-08-15 12:34:00,
2013-08-15 07:39:00,67.6,64.9,30.03,ENE,77,0.0,0.0,91,0.00,,,0.00,WeatherCatV1.02B3,2013-08-15 12:39:00,
2013-08-15 07:44:00,67.4,64.7,30.03,ENE,77,0.0,1.0,91,0.00,,,0.00,WeatherCatV1.02B3,2013-08-15 12:44:00,
2013-08-15 07:49:00,67.3,64.3,30.03,ENE,77,0.0,1.0,90,0.00,,,0.00,WeatherCatV1.02B3,2013-08-15 12:49:00,
2013-08-15 07:54:00,67.4,64.4,30.04,ENE,77,0.0,0.0,90,0.00,,,0.00,WeatherCatV1.02B3,2013-08-15 12:54:00,
2013-08-15 07:59:00,67.6,64.6,30.04,ENE,77,0.0,2.0,90,0.00,,,0.00,WeatherCatV1.02B3,2013-08-15 12:59:00,
2013-08-15 08:04:00,67.7,64.7,30.04,ENE,77,0.0,0.0,90,0.00,,,0.00,WeatherCatV1.02B3,2013-08-15 13:04:00,
2013-08-15 08:09:00,68.0,65.0,30.04,ENE,77,0.0,0.0,90,0.00,,,0.00,WeatherCatV1.02B3,2013-08-15 13:09:00,
2013-08-15 08:14:00,68.3,64.9,30.04,ENE,78,0.0,0.0,89,0.00,,,0.00,WeatherCatV1.02B3,2013-08-15 13:14:00,
2013-08-15 08:19:00,68.6,65.2,30.04,East,80,0.0,4.0,89,0.00,,,0.00,WeatherCatV1.02B3,2013-08-15 13:19:00,
2013-08-15 08:24:00,68.9,65.2,30.04,East,82,0.0,0.0,88,0.00,,,0.00,WeatherCatV1.02B3,2013-08-15 13:24:00,
2013-08-15 08:29:00,69.3,65.3,30.04,East,88,0.0,3.0,87,0.00,,,0.00,WeatherCatV1.02B3,2013-08-15 13:29:00,
2013-08-15 08:34:00,69.6,65.2,30.04,East,88,0.0,1.0,86,0.00,,,0.00,WeatherCatV1.02B3,2013-08-15 13:34:00,
2013-08-15 08:39:00,70.1,65.7,30.04,East,92,0.0,0.0,86,0.00,,,0.00,WeatherCatV1.02B3,2013-08-15 13:39:00,
2013-08-15 08:44:00,70.3,65.9,30.04,East,92,0.0,0.0,86,0.00,,,0.00,WeatherCatV1.02B3,2013-08-15 13:44:00,
2013-08-15 08:49:00,70.7,66.0,30.04,East,92,0.0,5.0,85,0.00,,,0.00,WeatherCatV1.02B3,2013-08-15 13:49:00,
2013-08-15 08:53:00,71.0,65.9,30.04,East,92,0.0,0.0,84,0.00,,,0.00,WeatherCatV1.02B3,2013-08-15 13:53:00,
2013-08-15 08:58:00,71.3,66.2,30.04,East,91,0.0,1.0,84,0.00,,,0.00,WeatherCatV1.02B3,2013-08-15 13:58:00,
2013-08-15 09:03:00,71.4,65.6,30.04,East,91,0.0,0.0,82,0.00,,,0.00,WeatherCatV1.02B3,2013-08-15 14:03:00,
2013-08-15 09:08:00,71.7,66.2,30.04,ESE,116,0.0,0.0,83,0.00,,,0.00,WeatherCatV1.02B3,2013-08-15 14:08:00,
2013-08-15 09:13:00,72.0,66.5,30.04,East,97,0.0,0.0,83,0.00,,,0.00,WeatherCatV1.02B3,2013-08-15 14:13:00,
2013-08-15 09:18:00,72.2,66.7,30.04,East,96,0.0,1.0,83,0.00,,,0.00,WeatherCatV1.02B3,2013-08-15 14:18:00,
2013-08-15 09:23:00,72.4,66.2,30.04,East,96,0.0,0.0,81,0.00,,,0.00,WeatherCatV1.02B3,2013-08-15 14:23:00,
2013-08-15 09:28:00,72.6,66.8,30.04,East,96,0.0,1.0,82,0.00,,,0.00,WeatherCatV1.02B3,2013-08-15 14:28:00,
2013-08-15 09:33:00,72.8,66.6,30.04,East,96,0.0,0.0,81,0.00,,,0.00,WeatherCatV1.02B3,2013-08-15 14:33:00,
2013-08-15 09:38:00,73.1,67.6,30.04,East,96,0.0,1.0,83,0.00,,,0.00,WeatherCatV1.02B3,2013-08-15 14:38:00,
2013-08-15 09:43:00,73.6,68.1,30.04,East,96,0.0,1.0,83,0.00,,,0.00,WeatherCatV1.02B3,2013-08-15 14:43:00,
2013-08-15 09:48:00,73.8,67.6,30.05,East,96,0.0,0.0,81,0.00,,,0.00,WeatherCatV1.02B3,2013-08-15 14:48:00,
2013-08-15 09:53:00,74.2,68.0,30.05,NE,47,0.0,2.0,81,0.00,,,0.00,WeatherCatV1.02B3,2013-08-15 14:53:00,
2013-08-15 09:58:00,74.4,68.2,30.05,NE,47,0.0,0.0,81,0.00,,,0.00,WeatherCatV1.02B3,2013-08-15 14:58:00,
2013-08-15 10:03:00,74.7,68.1,30.05,NE,47,0.0,1.0,80,0.00,,,0.00,WeatherCatV1.02B3,2013-08-15 15:03:00,
2013-08-15 10:08:00,75.1,69.2,30.05,NE,47,0.0,1.0,82,0.00,,,0.00,WeatherCatV1.02B3,2013-08-15 15:08:00,
2013-08-15 10:13:00,75.3,68.7,30.05,NE,47,0.0,1.0,80,0.00,,,0.00,WeatherCatV1.02B3,2013-08-15 15:13:00,
2013-08-15 10:18:00,75.5,68.9,30.05,NE,49,0.0,0.0,80,0.00,,,0.00,WeatherCatV1.02B3,2013-08-15 15:18:00,
2013-08-15 10:23:00,75.8,68.8,30.05,NE,49,0.0,2.0,79,0.00,,,0.00,WeatherCatV1.02B3,2013-08-15 15:23:00,
2013-08-15 10:28:00,76.0,68.6,30.05,NE,49,0.0,1.0,78,0.00,,,0.00,WeatherCatV1.02B3,2013-08-15 15:28:00,
2013-08-15 10:33:00,76.4,69.0,30.05,NE,49,0.0,2.0,78,0.00,,,0.00,WeatherCatV1.02B3,2013-08-15 15:33:00,
2013-08-15 10:38:00,76.6,68.5,30.05,NE,49,0.0,0.0,76,0.00,,,0.00,WeatherCatV1.02B3,2013-08-15 15:38:00,
2013-08-15 10:43:00,76.8,69.4,30.05,NE,51,0.0,4.0,78,0.00,,,0.00,WeatherCatV1.02B3,2013-08-15 15:43:00,
2013-08-15 10:48:00,77.1,69.7,30.04,NE,51,0.0,1.0,78,0.00,,,0.00,WeatherCatV1.02B3,2013-08-15 15:48:00,
2013-08-15 10:53:00,77.5,70.1,30.04,NE,52,0.0,1.0,78,0.00,,,0.00,WeatherCatV1.02B3,2013-08-15 15:53:00,
2013-08-15 10:58:00,77.7,69.9,30.04,NE,53,0.0,1.0,77,0.00,,,0.00,WeatherCatV1.02B3,2013-08-15 15:58:00,
2013-08-15 11:03:00,78.0,70.2,30.04,North,5,0.0,3.0,77,0.00,,,0.00,WeatherCatV1.02B3,2013-08-15 16:03:00,
2013-08-15 11:08:00,78.3,70.5,30.04,NNE,24,0.0,3.0,77,0.00,,,0.00,WeatherCatV1.02B3,2013-08-15 16:08:00,
2013-08-15 11:13:00,78.5,70.3,30.04,North,355,0.0,1.0,76,0.00,,,0.00,WeatherCatV1.02B3,2013-08-15 16:13:00,
2013-08-15 11:18:00,78.7,70.9,30.04,North,0,0.0,2.0,77,0.00,,,0.00,WeatherCatV1.02B3,2013-08-15 16:18:00,
2013-08-15 11:23:00,78.7,69.3,30.04,NW,314,0.0,0.0,73,0.00,,,0.00,WeatherCatV1.02B3,2013-08-15 16:23:00,
2013-08-15 11:28:00,78.8,69.4,30.04,NW,315,0.0,1.0,73,0.00,,,0.00,WeatherCatV1.02B3,2013-08-15 16:28:00,
2013-08-15 11:33:00,79.0,69.6,30.04,NNW,334,0.0,0.0,73,0.00,,,0.00,WeatherCatV1.02B3,2013-08-15 16:33:00,
2013-08-15 11:38:00,79.2,69.8,30.04,ENE,69,2.0,2.0,73,0.00,,,0.00,WeatherCatV1.02B3,2013-08-15 16:38:00,
2013-08-15 11:43:00,79.5,69.2,30.04,NNE,23,0.0,3.0,71,0.00,,,0.00,WeatherCatV1.02B3,2013-08-15 16:43:00,
2013-08-15 11:48:00,79.8,69.5,30.04,NE,42,0.0,1.0,71,0.00,,,0.00,WeatherCatV1.02B3,2013-08-15 16:48:00,
2013-08-15 11:53:00,80.1,69.0,30.03,North,5,0.0,0.0,69,0.00,,,0.00,WeatherCatV1.02B3,2013-08-15 16:53:00,
2013-08-15 11:58:00,80.4,70.1,30.03,NNE,17,0.0,1.0,71,0.00,,,0.00,WeatherCatV1.02B3,2013-08-15 16:58:00,
2013-08-15 12:03:00,80.6,69.5,30.03,North,10,0.0,0.0,69,0.00,,,0.00,WeatherCatV1.02B3,2013-08-15 17:03:00,
2013-08-15 12:08:00,81.1,70.4,30.03,ENE,65,0.0,3.0,70,0.00,,,0.00,WeatherCatV1.02B3,2013-08-15 17:08:00,
2013-08-15 12:13:00,81.5,70.3,30.02,North,0,0.0,4.0,69,0.00,,,0.00,WeatherCatV1.02B3,2013-08-15 17:13:00,
2013-08-15 12:18:00,81.8,70.6,30.03,NNW,339,0.0,0.0,69,0.00,,,0.00,WeatherCatV1.02B3,2013-08-15 17:18:00,
2013-08-15 12:23:00,81.6,70.4,30.02,NW,323,1.0,2.0,69,0.00,,,0.00,WeatherCatV1.02B3,2013-08-15 17:23:00,
2013-08-15 12:28:00,81.9,71.5,30.02,NNW,336,0.0,1.0,71,0.00,,,0.00,WeatherCatV1.02B3,2013-08-15 17:28:00,
2013-08-15 12:33:00,82.3,71.9,30.02,NNE,24,0.0,2.0,71,0.00,,,0.00,WeatherCatV1.02B3,2013-08-15 17:33:00,
2013-08-15 12:38:00,82.6,70.9,30.02,ESE,118,0.0,6.0,68,0.00,,,0.00,WeatherCatV1.02B3,2013-08-15 17:38:00,
2013-08-15 12:43:00,82.8,71.6,30.02,NE,55,1.0,4.0,69,0.00,,,0.00,WeatherCatV1.02B3,2013-08-15 17:43:00,
2013-08-15 12:48:00,82.7,70.2,30.02,NW,319,2.0,5.0,66,0.00,,,0.00,WeatherCatV1.02B3,2013-08-15 17:48:00,
2013-08-15 12:53:00,82.8,70.7,30.02,NNE,19,0.0,1.0,67,0.00,,,0.00,WeatherCatV1.02B3,2013-08-15 17:53:00,
2013-08-15 12:58:00,82.7,69.7,30.02,NE,36,0.0,2.0,65,0.00,,,0.00,WeatherCatV1.02B3,2013-08-15 17:58:00,
2013-08-15 13:03:00,82.8,70.3,30.02,ENE,61,3.0,4.0,66,0.00,,,0.00,WeatherCatV1.02B3,2013-08-15 18:03:00,
2013-08-15 13:08:00,83.1,70.1,30.02,NE,55,0.0,3.0,65,0.00,,,0.00,WeatherCatV1.02B3,2013-08-15 18:08:00,
2013-08-15 13:13:00,83.6,70.6,30.02,NNE,25,5.0,5.0,65,0.00,,,0.00,WeatherCatV1.02B3,2013-08-15 18:13:00,
2013-08-15 13:18:00,83.7,69.3,30.02,NE,35,0.0,2.0,62,0.00,,,0.00,WeatherCatV1.02B3,2013-08-15 18:18:00,
2013-08-15 13:23:00,83.8,69.4,30.01,ENE,65,0.0,1.0,62,0.00,,,0.00,WeatherCatV1.02B3,2013-08-15 18:23:00,
2013-08-15 13:28:00,83.8,70.3,30.01,NNW,343,0.0,1.0,64,0.00,,,0.00,WeatherCatV1.02B3,2013-08-15 18:28:00,
2013-08-15 13:33:00,83.8,70.3,30.01,NE,41,1.0,4.0,64,0.00,,,0.00,WeatherCatV1.02B3,2013-08-15 18:33:00,
2013-08-15 13:38:00,83.9,70.4,30.01,NE,40,0.0,3.0,64,0.00,,,0.00,WeatherCatV1.02B3,2013-08-15 18:38:00,
2013-08-15 13:43:00,84.1,71.0,30.01,East,81,1.0,1.0,65,0.00,,,0.00,WeatherCatV1.02B3,2013-08-15 18:43:00,
2013-08-15 13:48:00,84.3,70.3,30.01,NE,43,1.0,5.0,63,0.00,,,0.00,WeatherCatV1.02B3,2013-08-15 18:48:00,
2013-08-15 13:53:00,84.3,69.8,30.01,WNW,295,1.0,3.0,62,0.00,,,0.00,WeatherCatV1.02B3,2013-08-15 18:53:00,
2013-08-15 13:58:00,84.2,71.6,30.01,NNE,28,0.0,6.0,66,0.00,,,0.00,WeatherCatV1.02B3,2013-08-15 18:58:00,
2013-08-15 14:03:00,84.5,70.5,30.00,ENE,57,1.0,4.0,63,0.00,,,0.00,WeatherCatV1.02B3,2013-08-15 19:03:00,
2013-08-15 14:08:00,84.7,71.1,30.00,ENE,59,4.0,7.0,64,0.00,,,0.00,WeatherCatV1.02B3,2013-08-15 19:08:00,
2013-08-15 14:13:00,84.6,71.5,30.00,ESE,103,2.0,6.0,65,0.00,,,0.00,WeatherCatV1.02B3,2013-08-15 19:13:00,
2013-08-15 14:18:00,84.9,70.4,30.00,ESE,119,0.0,7.0,62,0.00,,,0.00,WeatherCatV1.02B3,2013-08-15 19:18:00,
2013-08-15 14:23:00,85.5,72.8,30.00,NE,51,0.0,4.0,66,0.00,,,0.00,WeatherCatV1.02B3,2013-08-15 19:23:00,
2013-08-15 14:28:00,85.5,71.4,29.99,NE,36,0.0,2.0,63,0.00,,,0.00,WeatherCatV1.02B3,2013-08-15 19:28:00,
2013-08-15 14:33:00,85.7,69.2,29.99,ENE,72,3.0,4.0,58,0.00,,,0.00,WeatherCatV1.02B3,2013-08-15 19:33:00,
2013-08-15 14:38:00,85.3,70.3,29.99,NE,34,1.0,4.0,61,0.00,,,0.00,WeatherCatV1.02B3,2013-08-15 19:38:00,
2013-08-15 14:43:00,85.1,69.6,29.99,NE,34,0.0,3.0,60,0.00,,,0.00,WeatherCatV1.02B3,2013-08-15 19:43:00,
2013-08-15 14:48:00,85.9,71.3,29.99,NE,53,0.0,5.0,62,0.00,,,0.00,WeatherCatV1.02B3,2013-08-15 19:48:00,
2013-08-15 14:53:00,85.9,70.4,29.99,NE,38,1.0,5.0,60,0.00,,,0.00,WeatherCatV1.02B3,2013-08-15 19:53:00,
2013-08-15 14:58:00,86.2,70.7,29.99,North,0,0.0,4.0,60,0.00,,,0.00,WeatherCatV1.02B3,2013-08-15 19:58:00,
2013-08-15 15:03:00,85.9,68.9,29.98,NNW,347,0.0,1.0,57,0.00,,,0.00,WeatherCatV1.02B3,2013-08-15 20:03:00,
2013-08-15 15:08:00,85.8,69.3,29.98,NNE,17,1.0,4.0,58,0.00,,,0.00,WeatherCatV1.02B3,2013-08-15 20:08:00,
2013-08-15 15:13:00,86.0,69.0,29.98,East,88,0.0,1.0,57,0.00,,,0.00,WeatherCatV1.02B3,2013-08-15 20:13:00,
2013-08-15 15:18:00,86.3,69.7,29.98,ENE,63,1.0,5.0,58,0.00,,,0.00,WeatherCatV1.02B3,2013-08-15 20:18:00,
2013-08-15 15:23:00,86.4,71.8,29.98,East,98,2.0,6.0,62,0.00,,,0.00,WeatherCatV1.02B3,2013-08-15 20:23:00,
2013-08-15 15:28:00,86.8,70.2,29.98,ESE,110,1.0,1.0,58,0.00,,,0.00,WeatherCatV1.02B3,2013-08-15 20:28:00,
2013-08-15 15:33:00,86.6,68.5,29.98,North,0,0.0,3.0,55,0.00,,,0.00,WeatherCatV1.02B3,2013-08-15 20:33:00,
2013-08-15 15:38:00,86.3,69.7,29.98,North,9,0.0,4.0,58,0.00,,,0.00,WeatherCatV1.02B3,2013-08-15 20:38:00,
2013-08-15 15:43:00,86.9,68.8,29.98,ENE,59,0.0,4.0,55,0.00,,,0.00,WeatherCatV1.02B3,2013-08-15 20:43:00,
2013-08-15 15:48:00,86.4,69.8,29.98,NNW,332,0.0,3.0,58,0.00,,,0.00,WeatherCatV1.02B3,2013-08-15 20:48:00,
2013-08-15 15:53:00,86.4,68.3,29.98,NE,46,1.0,1.0,55,0.00,,,0.00,WeatherCatV1.02B3,2013-08-15 20:53:00,
2013-08-15 15:58:00,86.0,68.4,29.98,NE,34,0.0,4.0,56,0.00,,,0.00,WeatherCatV1.02B3,2013-08-15 20:58:00,
2013-08-15 16:03:00,85.9,68.3,29.98,NNE,30,0.0,2.0,56,0.00,,,0.00,WeatherCatV1.02B3,2013-08-15 21:03:00,
2013-08-15 16:08:00,85.8,68.8,29.98,NNE,19,0.0,2.0,57,0.00,,,0.00,WeatherCatV1.02B3,2013-08-15 21:08:00,
2013-08-15 16:13:00,85.5,69.0,29.98,NE,39,1.0,5.0,58,0.00,,,0.00,WeatherCatV1.02B3,2013-08-15 21:13:00,
2013-08-15 16:18:00,85.4,69.9,29.98,NE,53,0.0,2.0,60,0.00,,,0.00,WeatherCatV1.02B3,2013-08-15 21:18:00,
2013-08-15 16:23:00,85.8,70.3,29.97,ENE,61,2.0,5.0,60,0.00,,,0.00,WeatherCatV1.02B3,2013-08-15 21:23:00,
2013-08-15 16:28:00,85.5,70.0,29.98,ENE,59,0.0,2.0,60,0.00,,,0.00,WeatherCatV1.02B3,2013-08-15 21:28:00,
2013-08-15 16:33:00,85.3,69.3,29.97,NE,39,1.0,4.0,59,0.00,,,0.00,WeatherCatV1.02B3,2013-08-15 21:33:00,
2013-08-15 16:38:00,85.0,69.5,29.97,East,81,0.0,3.0,60,0.00,,,0.00,WeatherCatV1.02B3,2013-08-15 21:38:00,
2013-08-15 16:43:00,84.8,69.8,29.97,NE,46,0.0,6.0,61,0.00,,,0.00,WeatherCatV1.02B3,2013-08-15 21:43:00,
2013-08-15 16:48:00,84.5,70.0,29.97,North,0,0.0,4.0,62,0.00,,,0.00,WeatherCatV1.02B3,2013-08-15 21:48:00,
2013-08-15 16:53:00,84.0,69.5,29.97,North,5,1.0,3.0,62,0.00,,,0.00,WeatherCatV1.02B3,2013-08-15 21:53:00,
2013-08-15 16:58:00,83.9,69.5,29.97,NNE,16,0.0,2.0,62,0.00,,,0.00,WeatherCatV1.02B3,2013-08-15 21:58:00,
2013-08-15 17:03:00,84.3,69.8,29.98,NNE,28,0.0,3.0,62,0.00,,,0.00,WeatherCatV1.02B3,2013-08-15 22:03:00,
2013-08-15 17:08:00,83.9,69.5,29.98,NNE,17,0.0,5.0,62,0.00,,,0.00,WeatherCatV1.02B3,2013-08-15 22:08:00,
2013-08-15 17:13:00,83.6,69.2,29.98,NNE,15,0.0,3.0,62,0.00,,,0.00,WeatherCatV1.02B3,2013-08-15 22:13:00,
2013-08-15 17:18:00,83.6,69.2,29.98,East,93,0.0,4.0,62,0.00,,,0.00,WeatherCatV1.02B3,2013-08-15 22:18:00,
2013-08-15 17:23:00,83.4,68.5,29.98,NNE,22,2.0,3.0,61,0.00,,,0.00,WeatherCatV1.02B3,2013-08-15 22:23:00,
2013-08-15 17:28:00,83.3,69.8,29.98,NE,55,0.0,1.0,64,0.00,,,0.00,WeatherCatV1.02B3,2013-08-15 22:28:00,
2013-08-15 17:33:00,83.3,69.8,29.98,North,355,0.0,2.0,64,0.00,,,0.00,WeatherCatV1.02B3,2013-08-15 22:33:00,
2013-08-15 17:38:00,83.2,68.3,29.98,North,5,1.0,5.0,61,0.00,,,0.00,WeatherCatV1.02B3,2013-08-15 22:38:00,
2013-08-15 17:43:00,83.2,69.7,29.98,NNE,22,2.0,3.0,64,0.00,,,0.00,WeatherCatV1.02B3,2013-08-15 22:43:00,
2013-08-15 17:48:00,83.2,69.7,29.98,NE,37,5.0,5.0,64,0.00,,,0.00,WeatherCatV1.02B3,2013-08-15 22:48:00,
2013-08-15 17:53:00,83.2,69.7,29.98,East,92,0.0,4.0,64,0.00,,,0.00,WeatherCatV1.02B3,2013-08-15 22:53:00,
2013-08-15 17:58:00,82.9,69.0,29.98,NE,48,0.0,5.0,63,0.00,,,0.00,WeatherCatV1.02B3,2013-08-15 22:58:00,
2013-08-15 18:03:00,82.6,69.2,29.98,NNE,14,0.0,1.0,64,0.00,,,0.00,WeatherCatV1.02B3,2013-08-15 23:03:00,
2013-08-15 18:08:00,82.4,68.5,29.98,NE,37,0.0,5.0,63,0.00,,,0.00,WeatherCatV1.02B3,2013-08-15 23:08:00,
2013-08-15 18:13:00,82.0,68.6,29.98,NNE,21,0.0,4.0,64,0.00,,,0.00,WeatherCatV1.02B3,2013-08-15 23:13:00,
2013-08-15 18:18:00,81.6,68.7,29.98,NNE,20,1.0,5.0,65,0.00,,,0.00,WeatherCatV1.02B3,2013-08-15 23:18:00,
2013-08-15 18:23:00,81.4,68.9,29.98,NNE,31,1.0,5.0,66,0.00,,,0.00,WeatherCatV1.02B3,2013-08-15 23:23:00,
2013-08-15 18:28:00,81.3,68.8,29.98,NE,47,4.0,5.0,66,0.00,,,0.00,WeatherCatV1.02B3,2013-08-15 23:28:00,
2013-08-15 18:33:00,81.2,68.7,29.98,North,355,0.0,3.0,66,0.00,,,0.00,WeatherCatV1.02B3,2013-08-15 23:33:00,
2013-08-15 18:38:00,81.0,68.5,29.98,NE,37,0.0,4.0,66,0.00,,,0.00,WeatherCatV1.02B3,2013-08-15 23:38:00,
2013-08-15 18:43:00,80.7,67.8,29.98,North,351,2.0,6.0,65,0.00,,,0.00,WeatherCatV1.02B3,2013-08-15 23:43:00,
2013-08-15 18:48:00,80.6,68.2,29.98,NNE,31,0.0,7.0,66,0.00,,,0.00,WeatherCatV1.02B3,2013-08-15 23:48:00,
2013-08-15 18:53:00,80.5,68.1,29.98,NE,42,0.0,4.0,66,0.00,,,0.00,WeatherCatV1.02B3,2013-08-15 23:53:00,
2013-08-15 18:58:00,80.4,68.0,29.98,North,355,1.0,1.0,66,0.00,,,0.00,WeatherCatV1.02B3,2013-08-15 23:58:00,
2013-08-15 19:03:00,80.4,68.4,29.98,NE,34,0.0,5.0,67,0.00,,,0.00,WeatherCatV1.02B3,2013-08-16 00:03:00,
2013-08-15 19:08:00,80.3,67.9,29.98,NNE,16,0.0,4.0,66,0.00,,,0.00,WeatherCatV1.02B3,2013-08-16 00:08:00,
2013-08-15 19:13:00,80.1,68.1,29.98,ENE,61,5.0,5.0,67,0.00,,,0.00,WeatherCatV1.02B3,2013-08-16 00:13:00,
2013-08-15 19:18:00,79.9,67.9,29.99,NNE,14,2.0,4.0,67,0.00,,,0.00,WeatherCatV1.02B3,2013-08-16 00:18:00,
2013-08-15 19:23:00,79.7,67.7,29.98,ENE,60,0.0,0.0,67,0.00,,,0.00,WeatherCatV1.02B3,2013-08-16 00:23:00,
2013-08-15 19:28:00,79.6,67.7,29.99,ENE,60,0.0,1.0,67,0.00,,,0.00,WeatherCatV1.02B3,2013-08-16 00:28:00,
2013-08-15 19:33:00,79.4,67.5,29.99,NE,45,1.0,1.0,67,0.00,,,0.00,WeatherCatV1.02B3,2013-08-16 00:33:00,
2013-08-15 19:38:00,79.3,67.8,29.98,NE,45,0.0,2.0,68,0.00,,,0.00,WeatherCatV1.02B3,2013-08-16 00:38:00,
2013-08-15 19:43:00,79.1,67.2,29.99,NE,45,0.0,2.0,67,0.00,,,0.00,WeatherCatV1.02B3,2013-08-16 00:43:00,
2013-08-15 19:48:00,78.9,67.4,29.99,NE,45,0.0,0.0,68,0.00,,,0.00,WeatherCatV1.02B3,2013-08-16 00:48:00,
2013-08-15 19:53:00,78.7,66.8,29.99,NE,45,0.0,1.0,67,0.00,,,0.00,WeatherCatV1.02B3,2013-08-16 00:53:00,
2013-08-15 19:58:00,78.6,67.1,29.99,NE,45,0.0,0.0,68,0.00,,,0.00,WeatherCatV1.02B3,2013-08-16 00:58:00,
2013-08-15 20:03:00,78.5,67.0,29.99,NE,45,0.0,0.0,68,0.00,,,0.00,WeatherCatV1.02B3,2013-08-16 01:03:00,
2013-08-15 20:08:00,78.4,66.9,29.99,NE,45,0.0,0.0,68,0.00,,,0.00,WeatherCatV1.02B3,2013-08-16 01:08:00,
2013-08-15 20:13:00,78.3,67.3,29.99,NE,45,0.0,0.0,69,0.00,,,0.00,WeatherCatV1.02B3,2013-08-16 01:13:00,
2013-08-15 20:18:00,78.2,67.2,29.99,NE,45,0.0,0.0,69,0.00,,,0.00,WeatherCatV1.02B3,2013-08-16 01:18:00,
2013-08-15 20:23:00,78.0,67.0,29.99,NE,45,0.0,0.0,69,0.00,,,0.00,WeatherCatV1.02B3,2013-08-16 01:23:00,
2013-08-15 20:28:00,77.9,67.3,30.00,NE,45,0.0,0.0,70,0.00,,,0.00,WeatherCatV1.02B3,2013-08-16 01:28:00,
2013-08-15 20:33:00,77.7,67.1,30.00,NE,45,0.0,0.0,70,0.00,,,0.00,WeatherCatV1.02B3,2013-08-16 01:33:00,
2013-08-15 20:38:00,77.5,67.3,30.00,NE,45,0.0,0.0,71,0.00,,,0.00,WeatherCatV1.02B3,2013-08-16 01:38:00,
2013-08-15 20:43:00,77.4,66.8,30.00,NE,45,0.0,0.0,70,0.00,,,0.00,WeatherCatV1.02B3,2013-08-16 01:43:00,
2013-08-15 20:48:00,77.2,67.0,30.00,NE,45,0.0,1.0,71,0.00,,,0.00,WeatherCatV1.02B3,2013-08-16 01:48:00,
2013-08-15 20:53:00,77.1,67.0,30.01,NE,45,0.0,0.0,71,0.00,,,0.00,WeatherCatV1.02B3,2013-08-16 01:53:00,
2013-08-15 20:58:00,77.0,67.3,30.01,NE,45,0.0,0.0,72,0.00,,,0.00,WeatherCatV1.02B3,2013-08-16 01:58:00,
2013-08-15 21:03:00,76.9,67.2,30.01,NE,45,0.0,0.0,72,0.00,,,0.00,WeatherCatV1.02B3,2013-08-16 02:03:00,
2013-08-15 21:08:00,76.7,67.4,30.01,NE,45,0.0,0.0,73,0.00,,,0.00,WeatherCatV1.02B3,2013-08-16 02:08:00,
2013-08-15 21:13:00,76.6,67.3,30.02,NE,45,0.0,0.0,73,0.00,,,0.00,WeatherCatV1.02B3,2013-08-16 02:13:00,
2013-08-15 21:18:00,76.5,67.2,30.02,NE,45,0.0,1.0,73,0.00,,,0.00,WeatherCatV1.02B3,2013-08-16 02:18:00,
2013-08-15 21:23:00,76.6,67.3,30.02,NE,46,1.0,2.0,73,0.00,,,0.00,WeatherCatV1.02B3,2013-08-16 02:23:00,
2013-08-15 21:28:00,76.9,66.8,30.01,NE,46,0.0,0.0,71,0.00,,,0.00,WeatherCatV1.02B3,2013-08-16 02:28:00,
2013-08-15 21:33:00,77.0,66.9,30.02,NE,46,0.0,0.0,71,0.00,,,0.00,WeatherCatV1.02B3,2013-08-16 02:33:00,
2013-08-15 21:38:00,77.0,67.3,30.02,NE,46,0.0,1.0,72,0.00,,,0.00,WeatherCatV1.02B3,2013-08-16 02:38:00,
2013-08-15 21:43:00,77.1,67.4,30.02,NE,38,0.0,1.0,72,0.00,,,0.00,WeatherCatV1.02B3,2013-08-16 02:43:00,
2013-08-15 21:48:00,77.1,67.4,30.02,NE,36,0.0,3.0,72,0.00,,,0.00,WeatherCatV1.02B3,2013-08-16 02:48:00,
2013-08-15 21:53:00,77.2,67.5,30.02,NNE,22,1.0,5.0,72,0.00,,,0.00,WeatherCatV1.02B3,2013-08-16 02:53:00,
2013-08-15 21:58:00,77.3,67.1,30.02,NE,49,1.0,6.0,71,0.00,,,0.00,WeatherCatV1.02B3,2013-08-16 02:58:00,
2013-08-15 22:03:00,77.4,67.2,30.03,NE,52,0.0,4.0,71,0.00,,,0.00,WeatherCatV1.02B3,2013-08-16 03:03:00,
2013-08-15 22:08:00,77.4,66.8,30.03,NE,36,0.0,2.0,70,0.00,,,0.00,WeatherCatV1.02B3,2013-08-16 03:08:00,
2013-08-15 22:13:00,77.5,67.3,30.03,NE,38,0.0,2.0,71,0.00,,,0.00,WeatherCatV1.02B3,2013-08-16 03:13:00,
2013-08-15 22:18:00,77.5,66.9,30.03,NNW,334,0.0,5.0,70,0.00,,,0.00,WeatherCatV1.02B3,2013-08-16 03:18:00,
2013-08-15 22:23:00,77.4,66.8,30.03,NNW,344,0.0,4.0,70,0.00,,,0.00,WeatherCatV1.02B3,2013-08-16 03:23:00,
2013-08-15 22:28:00,77.4,66.8,30.03,North,9,0.0,1.0,70,0.00,,,0.00,WeatherCatV1.02B3,2013-08-16 03:28:00,
2013-08-15 22:33:00,77.3,67.1,30.03,NNW,333,1.0,5.0,71,0.00,,,0.00,WeatherCatV1.02B3,2013-08-16 03:33:00,
2013-08-15 22:38:00,77.1,66.5,30.03,East,93,0.0,1.0,70,0.00,,,0.00,WeatherCatV1.02B3,2013-08-16 03:38:00,
2013-08-15 22:43:00,77.0,66.4,30.03,NNE,17,0.0,2.0,70,0.00,,,0.00,WeatherCatV1.02B3,2013-08-16 03:43:00,
2013-08-15 22:48:00,76.8,66.7,30.03,North,9,0.0,1.0,71,0.00,,,0.00,WeatherCatV1.02B3,2013-08-16 03:48:00,
2013-08-15 22:53:00,76.6,66.9,30.03,NNE,26,0.0,2.0,72,0.00,,,0.00,WeatherCatV1.02B3,2013-08-16 03:53:00,
2013-08-15 22:58:00,76.4,66.7,30.03,NNE,24,0.0,0.0,72,0.00,,,0.00,WeatherCatV1.02B3,2013-08-16 03:58:00,
2013-08-15 23:01:00,76.4,66.7,30.03,NW,319,2.0,3.0,72,0.00,,,0.00,WeatherCatV1.02B3,2013-08-16 04:01:00,
2013-08-15 23:06:00,76.1,66.8,30.03,NE,47,0.0,3.0,73,0.00,,,0.00,WeatherCatV1.02B3,2013-08-16 04:06:00,
2013-08-15 23:11:00,76.0,66.7,30.03,NE,45,0.0,5.0,73,0.00,,,0.00,WeatherCatV1.02B3,2013-08-16 04:11:00,
2013-08-15 23:16:00,75.8,66.5,30.03,SE,134,0.0,4.0,73,0.00,,,0.00,WeatherCatV1.02B3,2013-08-16 04:16:00,
2013-08-15 23:21:00,75.6,66.7,30.02,NNW,340,0.0,1.0,74,0.00,,,0.00,WeatherCatV1.02B3,2013-08-16 04:21:00,
2013-08-15 23:26:00,75.4,66.5,30.02,ENE,67,0.0,2.0,74,0.00,,,0.00,WeatherCatV1.02B3,2013-08-16 04:26:00,
2013-08-15 23:31:00,75.3,66.8,30.02,NE,49,0.0,2.0,75,0.00,,,0.00,WeatherCatV1.02B3,2013-08-16 04:31:00,
2013-08-15 23:36:00,75.1,66.6,30.02,North,355,0.0,4.0,75,0.00,,,0.00,WeatherCatV1.02B3,2013-08-16 04:36:00,
2013-08-15 23:41:00,75.0,66.9,30.02,North,5,1.0,1.0,76,0.00,,,0.00,WeatherCatV1.02B3,2013-08-16 04:41:00,
2013-08-15 23:46:00,74.8,66.3,30.02,NE,44,0.0,1.0,75,0.00,,,0.00,WeatherCatV1.02B3,2013-08-16 04:46:00,
2013-08-15 23:51:00,74.6,66.1,30.02,NE,46,3.0,3.0,75,0.00,,,0.00,WeatherCatV1.02B3,2013-08-16 04:51:00,
2013-08-15 23:56:00,74.5,66.0,30.02,NE,36,0.0,4.0,75,0.00,,,0.00,WeatherCatV1.02B3,2013-08-16 04:56:00,